• Join FlightAware (Why Join?)
  • Login
  • US Flag GB Flag 
14:54 EDT


 

Airport Tracker/Info


-or-


 

Live Flight TrackerFlight Track Log ✈ TCF5983 ✈ 23-Apr-2013 ✈ KDTW - KDFW

Flight Track Log - Related Links

Times and Time Zones

All times are in EDT time to prevent confusion due to time zone crossing. See the TCF5983 flight status page for this flight to view local times or setup timezone preferences in your user account.

Time Position Orientation Groundspeed Altitude Reporting Facility
EDT Latitude Longitude Course Direction KTS MPH feet Rate Location/Type
15:56 42.1953 -83.3608 194° South 154 177 1,500  Level Cleveland Center
15:57 42.1553 -83.3703 190° South 177 204 3,300 1,740 Climbing Cleveland Center
15:57 42.1322 -83.3775 193° South 189 217 3,700 1,860 Climbing Cleveland Center
15:58 42.0986 -83.3872 192° South 225 259 5,200 2,160 Climbing Cleveland Center
15:58 42.0778 -83.3919 190° South 236 272 5,900 2,580 Climbing Cleveland Center
15:59 42.0106 -83.4114 192° South 258 297 8,600 2,460 Climbing Cleveland Center
16:00 41.9162 -83.8932 194° South  Level Estimated
16:00 41.9431 -83.4447 200° South 258 297 10,900  Level Cleveland Center
16:01 41.8567 -84.0005 194° South  Level Estimated
16:01 41.8669 -83.4803 199° South 275 316 12,800  Level Cleveland Center
16:02 41.7847 -83.5183 199° South 290 334 15,200 2,220 Climbing Cleveland Center
16:03 41.7067 -83.5567 200° South 301 346 17,300 1,920 Climbing Cleveland Center
16:04 41.6225 -83.5861 195° South 307 353 19,100 1,680 Climbing Cleveland Center
16:05 41.5342 -83.6153 194° South 318 366 20,700 1,620 Climbing Cleveland Center
16:06 41.4436 -83.6442 193° South 328 377 22,400 1,560 Climbing Cleveland Center
16:07 41.3608 -83.7011 207° Southwest 333 383 23,900 1,200 Climbing Cleveland Center
16:08 41.2758 -83.7633 209° Southwest 345 397 24,800 1,020 Climbing Cleveland Center
16:09 41.1842 -83.8333 210° Southwest 366 421 26,000 1,200 Climbing Cleveland Center
16:10 41.1142 -83.8803 207° Southwest 375 432 27,000 1,200 Climbing Indianapolis Center
16:11 41.0297 -83.9411 209° Southwest 380 437 28,300 1,200 Climbing Indianapolis Center
16:12 40.9233 -84.0181 209° Southwest 374 430 29,500 960 Climbing Indianapolis Center
16:13 40.8292 -84.0856 208° Southwest 381 438 30,300 720 Climbing Indianapolis Center
16:14 40.7353 -84.1522 208° Southwest 382 440 31,100 780 Climbing Indianapolis Center
16:15 40.6400 -84.2200 208° Southwest 384 442 32,000 420 Climbing Indianapolis Center
16:16 40.5442 -84.2892 209° Southwest 391 450 32,000  Level Indianapolis Center
16:17 40.4417 -84.3603 208° Southwest 413 475 32,000  Level Indianapolis Center
16:18 40.3369 -84.4339 208° Southwest 422 486 32,000  Level Indianapolis Center
16:19 40.2128 -84.5208 208° Southwest 430 495 32,000  Level Indianapolis Center
16:20 40.1050 -84.5961 208° Southwest 436 502 32,000  Level Indianapolis Center
16:21 39.9983 -84.6694 208° Southwest 432 497 32,000  Level Indianapolis Center
16:22 39.8922 -84.7428 208° Southwest 429 494 32,000  Level Indianapolis Center
16:23 39.7869 -84.8156 208° Southwest 426 490 32,000  Level Indianapolis Center
16:24 39.6978 -84.9333 225° Southwest 413 475 32,000  Level Indianapolis Center
16:26 39.6043 -85.0620 233° Southwest  Level FlightAware Approximate
16:26 39.5561 -85.1686 233° Southwest 410 472 32,000  Level Indianapolis Center
16:27 39.4842 -85.2881 232° Southwest 416 479 32,000  Level Indianapolis Center
16:28 39.4117 -85.4061 232° Southwest 415 478 32,000  Level Indianapolis Center
16:29 39.3269 -85.5453 232° Southwest 420 483 32,000  Level Indianapolis Center
16:30 39.2550 -85.6656 232° Southwest 420 483 32,000  Level Indianapolis Center
16:31 39.1831 -85.7822 232° Southwest 413 475 32,000  Level Indianapolis Center
16:32 39.1092 -85.9003 231° Southwest 418 481 32,000  Level Indianapolis Center
16:34 39.0375 -86.0164 232° Southwest 411 473 32,000  Level Indianapolis Center
16:35 38.9661 -86.1336 232° Southwest 413 475 32,000  Level Indianapolis Center
16:36 38.8928 -86.2497 231° Southwest 413 475 32,000  Level Indianapolis Center
16:37 38.8106 -86.3819 231° Southwest 412 474 32,000  Level Indianapolis Center
16:38 38.7389 -86.4972 231° Southwest 412 474 32,000  Level Indianapolis Center
16:39 38.6653 -86.6133 231° Southwest 418 481 32,000  Level Indianapolis Center
16:40 38.5925 -86.7297 231° Southwest 418 481 32,000  Level Indianapolis Center
16:41 38.5197 -86.8439 231° Southwest 415 478 32,000  Level Indianapolis Center
16:42 38.4458 -86.9594 231° Southwest 419 482 32,000  Level Indianapolis Center
16:43 38.3672 -87.0828 231° Southwest 422 486 32,000  Level Indianapolis Center
16:44 38.2919 -87.2017 231° Southwest 426 490 32,000  Level Indianapolis Center
16:45 38.2119 -87.3247 230° Southwest 425 489 32,000  Level Indianapolis Center
16:46 38.1350 -87.4431 230° Southwest 432 497 32,000  Level Indianapolis Center
16:47 38.0592 -87.5611 231° Southwest 432 497 32,000  Level Indianapolis Center
16:48 37.9667 -87.7011 230° Southwest 430 495 32,000  Level Indianapolis Center
16:49 37.8900 -87.8194 231° Southwest 432 497 32,000  Level Indianapolis Center
16:50 37.8097 -87.9317 228° Southwest 429 494 32,000  Level Indianapolis Center
16:51 37.7292 -88.0492 229° Southwest 430 495 32,000  Level Indianapolis Center
16:52 37.6508 -88.1631 229° Southwest 428 493 32,000  Level Indianapolis Center
16:53 37.5739 -88.2719 228° Southwest 428 493 32,000  Level Indianapolis Center
16:54 37.4950 -88.3856 229° Southwest 429 494 32,000  Level Indianapolis Center
16:55 37.4144 -88.5422 237° Southwest 433 498 32,000  Level Memphis Center
16:56 37.3706 -88.6761 248° West 421 484 32,000  Level Memphis Center
16:57 37.3264 -88.8103 248° West 421 484 32,000  Level Memphis Center
16:58 37.2844 -88.9492 249° West 421 484 32,000  Level Memphis Center
16:59 37.2378 -89.0828 246° West 421 484 32,000  Level Memphis Center
17:00 37.1975 -89.2136 249° West 416 479 32,000  Level Memphis Center
17:01 37.1528 -89.3472 247° West 416 479 32,000  Level Memphis Center
17:02 37.1081 -89.4803 247° West 416 479 32,000  Level Memphis Center
17:03 37.0631 -89.6133 247° West 416 479 32,000  Level Memphis Center
17:04 37.0178 -89.7489 247° West 416 479 32,000  Level Memphis Center
17:05 36.9767 -89.8714 247° West 416 479 32,000  Level Memphis Center
17:06 36.9333 -90.0014 247° West 416 479 32,000  Level Memphis Center
17:07 36.8858 -90.1339 246° West 416 479 32,000  Level Memphis Center
17:08 36.8422 -90.2661 248° West 416 479 32,000  Level Memphis Center
17:09 36.7986 -90.3958 247° West 416 479 32,000  Level Memphis Center
17:10 36.7525 -90.5253 246° West 416 479 32,000  Level Memphis Center
17:11 36.7064 -90.6544 246° West 416 479 32,000  Level Memphis Center
17:12 36.6644 -90.7839 248° West 416 479 32,000  Level Memphis Center
17:13 36.6161 -90.9153 245° Southwest 416 479 32,000  Level Memphis Center
17:14 36.5736 -91.0442 248° West 416 479 32,000  Level Memphis Center
17:15 36.5228 -91.1883 246° West 410 472 32,000  Level Memphis Center
17:16 36.4825 -91.3042 247° West 415 478 32,000  Level Memphis Center
17:17 36.4356 -91.4353 246° West 415 478 32,000  Level Memphis Center
17:18 36.3883 -91.5633 245° Southwest 415 478 32,000  Level Memphis Center
17:19 36.3433 -91.6942 247° West 415 478 32,000  Level Memphis Center
17:20 36.2939 -91.8325 246° West 415 478 32,000  Level Memphis Center
17:21 36.2483 -91.9603 246° West 415 478 32,000  Level Memphis Center
17:22 36.2031 -92.0750 244° Southwest 415 478 32,000  Level Memphis Center
17:23 36.1572 -92.2181 248° West 415 478 32,000  Level Memphis Center
17:24 36.1117 -92.3431 246° West 415 478 32,000  Level Memphis Center
17:25 36.0658 -92.4678 246° West 415 478 32,000  Level Memphis Center
17:26 36.0197 -92.5975 246° West 415 478 32,000  Level Memphis Center
17:28 35.9637 -92.7443 245° Southwest  Level FlightAware Approximate
17:28 35.9253 -92.8511 245° Southwest 415 478 32,000  Level Memphis Center
17:29 35.8789 -92.9778 246° West 415 478 32,000  Level Memphis Center
17:30 35.8367 -93.0917 245° Southwest 415 478 32,000  Level Memphis Center
17:31 35.7903 -93.2156 245° Southwest 409 471 32,000  Level Memphis Center
17:32 35.7414 -93.3417 244° Southwest 409 471 32,000  Level Memphis Center
17:33 35.6944 -93.4653 245° Southwest 409 471 32,000  Level Memphis Center
17:34 35.6497 -93.5914 246° West 409 471 32,000  Level Memphis Center
17:35 35.5983 -93.7144 243° Southwest 409 471 32,000  Level Memphis Center
17:36 35.5533 -93.8403 246° West 409 471 32,000  Level Memphis Center
17:37 35.5061 -93.9633 245° Southwest 409 471 32,000  Level Memphis Center
17:38 35.4586 -94.0861 245° Southwest 404 465 32,000  Level Memphis Center
17:39 35.4131 -94.2064 245° Southwest 398 458 32,000  Level Memphis Center
17:40 35.3472 -94.3178 234° Southwest 398 458 32,000  Level Memphis Center
17:41 35.2608 -94.4078 220° Southwest 408 470 32,000  Level Memphis Center
17:42 35.1764 -94.5028 223° Southwest 413 475 32,000  Level Memphis Center
17:44 35.0442 -94.6494 222° Southwest 407 468 32,000  Level Fort Worth Center
17:45 34.9564 -94.7408 220° Southwest 412 474 32,000  Level Fort Worth Center
17:46 34.8628 -94.8475 223° Southwest 417 480 32,000  Level Fort Worth Center
17:47 34.7750 -94.9386 220° Southwest 422 486 32,000 -180 Level Fort Worth Center
17:48 34.6828 -95.0272 218° Southwest 422 486 31,700 -900 Descending Fort Worth Center
17:49 34.5719 -95.0203 177° South 388 447 30,200 -1,380 Descending Fort Worth Center
17:50 34.4744 -94.9422 147° Southeast 365 420 29,000 -900 Descending Fort Worth Center
17:51 34.3811 -94.8619 145° Southeast 382 440 28,500 -1,020 Descending Fort Worth Center
17:52 34.2878 -94.7867 146° Southeast 399 459 27,000 -1,500 Descending Fort Worth Center
17:53 34.1944 -94.7117 146° Southeast 405 466 25,600 -1,320 Descending Fort Worth Center
17:54 34.1072 -94.7294 190° South 353 406 24,400 -840 Descending Fort Worth Center
17:55 34.0736 -94.8233 247° West 252 290 24,000 -240 Descending Fort Worth Center
17:56 34.0381 -94.9197 246° West 274 315 24,000  Level Fort Worth Center
17:57 34.0044 -95.0108 246° West 294 338 24,000  Level Fort Worth Center
17:58 33.9706 -95.1019 246° West 299 344 24,000  Level Fort Worth Center
17:59 33.9347 -95.1956 245° Southwest 304 350 24,000  Level Fort Worth Center
18:00 33.9008 -95.2864 246° West 304 350 24,000  Level Fort Worth Center
18:01 33.8586 -95.3925 244° Southwest 324 373 24,000  Level Fort Worth Center
18:02 33.8144 -95.5036 244° Southwest 349 402 24,000  Level Fort Worth Center
18:03 33.7806 -95.6017 247° West 364 419 24,000  Level Fort Worth Center
18:04 33.7383 -95.7150 246° West 364 419 24,000  Level Fort Worth Center
18:05 33.6958 -95.8256 245° Southwest 364 419 24,000  Level Fort Worth Center
18:06 33.6514 -95.9486 247° West 364 419 24,000 -420 Level Fort Worth Center
18:07 33.6086 -96.0467 242° Southwest 364 419 23,200 -1,440 Descending Fort Worth Center
18:08 33.5642 -96.1669 246° West 357 411 21,200 -1,860 Descending Fort Worth Center
18:09 33.5189 -96.2547 238° Southwest 357 411 19,500 -1,800 Descending Fort Worth Center
18:10 33.4467 -96.3431 226° Southwest 346 398 17,600 -1,800 Descending Fort Worth Center
18:11 33.3867 -96.4158 225° Southwest 341 392 15,900 -1,740 Descending Fort Worth Center
18:12 33.3186 -96.4961 225° Southwest 322 371 14,200 -1,620 Descending Fort Worth Center
18:13 33.2647 -96.5614 225° Southwest 316 364 12,700 -1,560 Descending Fort Worth Center
18:14 33.2089 -96.6289 225° Southwest 297 342 11,100 -900 Descending Fort Worth Center
18:15 33.1528 -96.6939 224° Southwest 272 313 11,000 -60 Descending Fort Worth Center
18:16 33.1072 -96.7489 225° Southwest 267 307 11,000  Level Fort Worth Center
18:16 33.0833 -96.7667 212° Southwest 256 295 11,000  Level Dallas / Fort Worth TRACON
18:17 33.0333 -96.8333 228° Southwest 255 293 11,000  Level Dallas / Fort Worth TRACON
18:18 32.9833 -96.8833 220° Southwest 226 260 11,000 -480 Level Dallas / Fort Worth TRACON
18:19 32.9167 -96.9000 192° South 234 269 10,100 -1,620 Descending Dallas / Fort Worth TRACON
18:20 32.8500 -96.9000 180° South 239 275 7,800 -1,560 Descending Dallas / Fort Worth TRACON
18:21 32.8000 -96.9000 180° South 230 265 7,000 -720 Descending Dallas / Fort Worth TRACON
18:22 32.7333 -96.9000 180° South 225 259 6,500 -1,080 Descending Dallas / Fort Worth TRACON
18:23 32.6667 -96.9167 192° South 217 250 5,000 -720 Descending Dallas / Fort Worth TRACON
18:24 32.6333 -96.9500 220° Southwest 222 255 5,000 -480 Level Dallas / Fort Worth TRACON
18:25 32.6667 -97.0167 301° West 242 278 4,000 -840 Descending Dallas / Fort Worth TRACON
18:26 32.7333 -97.0167 360° North 220 253 3,400 -840 Descending Dallas / Fort Worth TRACON
18:27 32.7833 -97.0167 360° North 172 198 2,500 -1,020 Descending Dallas / Fort Worth TRACON